Tyler, TX (75703)

12:30 AM CDT en Agosto 23, 2014 (GMT -0500)
KTXTYLER21 | Change Station
CLOSE
Current Station
Estación meteorológica personal
Location: Tyler, TX
Altura: 499 ft
Estaciones meteorológicas cercanas

Alt 499 ft 32.29 °N, 95.31 °W | Updated 37 seconds ago

Clear
Despejado
81.7 ° F
Sensación térmica 82 ° F
N
-
Viento Variable Viento desde Norte

Hoy
Alta -- | Baja -- ° F
--% Posibilidad de precipitaciones
Ayer
Alta -- | Baja -- ° F
Precip. -- pul
6:50 AM 7:56 PM
Creciente menguante, 5% visible
Presión 29.97 pul
Visibilidad 10.0 Millas
Nubes Despejado
Índice de calor 82 ° F
Punto de rocío 58 ° F
Humedad 44%
Precipitaciones -999.00 pul
Espesor de la nieve No disponible.
UV 0 de una escala de 12
Polen 8.50 de una escala de 12
Ozono Buena
PM2.5 Moderada
Flu Activity No disponible.
METAR KTYR 230453Z AUTO 17007KT 10SM CLR 28/21 A2999 RMK AO2 SLP148 T02830211

More Conditions Fewer Conditions

Presión 29.97 pul
Visibilidad 10.0 Millas
Nubes Despejado
Índice de calor 82 ° F
Punto de rocío 58 ° F
Humedad 44%
Precipitaciones -999.00 pul
Espesor de la nieve No disponible.
UV 0 de una escala de 12
Polen 8.50 de una escala de 12
Ozono Buena
PM2.5 Moderada
Flu Activity No disponible.
METAR KTYR 230453Z AUTO 17007KT 10SM CLR 28/21 A2999 RMK AO2 SLP148 T02830211

More Conditions Fewer Conditions

10-Day Weather Forecast

Almanac

Astronomía

Aug. 23, 2014 Salida Puesta
Hora real 6:50 AM CDT 7:56 PM CDT
Crepúsculo civil 6:25 AM CDT 8:21 PM CDT
Crepúsculo náutico 5:55 AM CDT 8:51 PM CDT
Crepúsculo astronómico 5:23 AM CDT 9:22 PM CDT
Luna 5:09 AM CDT 6:40 PM CDT
Horas de luz 13h 56m
Horas de luz
13h 05m
Tomorrow will be 1m 50s shorter.
Creciente menguante, 5% of the Moon is Illuminated
Hoy
Creciente menguante
Ago 25
Nueva
Sep 2
Cuarto creciente
Sep 8
Luna llena
Sep 15
Cuarto menguante

Extremos de hoy

Máximos del estado Bajos del estado

Community

WunderPhotos

Upload Photos

1,746,371 ¡fotos cargadas!

WunderBlogs® & News

By Dr. Jeff Masters
Director of Meteorology, Weather Underground
By Kari Strenfel
Meteorologist, Weather Underground
By Christopher C. Burt
Weather Historian, Weather Underground
August 23, 2014
August 23, 2014
August 22, 2014

Nearby

Calidad del aire

  Calidad del aire Índice AQ Contaminante
Ayer Moderada
PM2.5
Ayer Buena
OZONE
Real Moderada
PM2.5
Real Buena
OZONE
Viernes Buena
PM10
Viernes Buena
OZONE
Sábado Buena
PM10
Sábado Buena
OZONE
Domingo Buena
PM10
Domingo Buena
OZONE
Lunes Buena
OZONE
Lunes Buena
PM10
Martes Moderada
OZONE
Martes Buena
PM10

Grosos de nieve

Estación Profundido Altura
No tenemos constancia de nieve nueva.

Actividad de terremotos

Ciudad Distance Mag. Tiempo y dato
No hay informes recientes de la actividad sísmica.
Magnitud mínima muestra es 2,5.

Temperaturas de aguas costeras

Lugar Temperatura
Sin partes meteorológicos de las estaciones

Estaciones meteorológicas cercanas